Share

Laredo, TX (78044)

Laredo International (KLRD) Elev 509 ft | 27.54 °N, 99.46 °W | Change Station

Current weather conditions updated 24 minutes ago

Clear
Clear
66 °F
Feels Like 66 °F
N
13
Wind Variable Wind from ESE
Sunrise 7:11 AM
Sunset 8:03 PM
Moon Waning Gibbous

Today is forecast to be Much Warmer than yesterday.

Pressure 29.93 in
Visibility 10.0 miles
Clouds Clear
Dew Point 53 °F
Humidity 63%
Rainfall 0.00 in
Snow Depth Not available.
UV 0 out of 16
Pollen 9.70 out of 12
Ozone Good
PM2.5 Good
Flu Activity Local Activity
METAR KLRD 170556Z AUTO 12011KT 10SM CLR 19/12 A2996 RMK AO2 51018 T01880116 10238 20188 SLP135

More Conditions Fewer Conditions

Pressure 29.93 in
Visibility 10.0 miles
Clouds Clear
Dew Point 53 °F
Humidity 63%
Rainfall 0.00 in
Snow Depth Not available.
UV 0 out of 16
Pollen 9.70 out of 12
Ozone Good
PM2.5 Good
Flu Activity Local Activity
METAR KLRD 170556Z AUTO 12011KT 10SM CLR 19/12 A2996 RMK AO2 51018 T01880116 10238 20188 SLP135

More Conditions Fewer Conditions

10-Day Forecast

Almanac

Astronomy

Apr. 17, 2014 Rise Set
Actual Time 7:11 AM CDT 8:03 PM CDT
Civil Twilight 6:47 AM CDT 8:27 PM CDT
Nautical Twilight 6:19 AM CDT 8:56 PM CDT
Astronomical Twilight 5:50 AM CDT 9:25 PM CDT
Moon 10:40 PM CDT 8:53 AM CDT
Length of Visible Light 13h 40m
Length of Day
12h 52m
Tomorrow will be 1m 32s longer.
Waning Gibbous, 96% of the Moon is Illuminated
Today
Waning Gibbous
Apr 22
Last Quarter
Apr 29
New
May 6
First Quarter
May 14
Full

Today's Extremes

State Highs State Lows

Community

  • Sunset over the Bay
    Sunset over the Bay
  • symphony in blue....
    symphony in blue....
  • Dawn Surprise
    Dawn Surprise
  • Yucca delight
    Yucca delight
  • Sunset inside of the Ocean
    Sunset inside of the Ocean

WunderPhotos

Upload Photos

1,701,875 photos uploaded!

WunderBlogs® & News

Nearby

Air Quality

  Air Quality AQ Index Pollutant
Yesterday Good
OZONE
Yesterday Good
PM2.5
Current Good
PM2.5
Current Good
OZONE
Wednesday Good
PM10
Wednesday Good
OZONE
Thursday Good
PM10
Thursday Good
OZONE
Friday Good
PM10
Friday Good
OZONE
Saturday Good
PM10
Saturday Good
OZONE

Snow Depth

Station Depth Elevation
No new snow has been reported.

Coastal Water Temperatures

Place Temperature
No Stations Reporting

Earthquake Activity

City Distance Mag. Time & Date
No recent earthquake activity has been reported nearby.
Minimum magnitude displayed is 2.5.

Nearby Weather Stations

Station Location Temp. Dew Point Humidity Wind Precip. Elev Updated Type
Del Mar C, Laredo, TX 65.3 °F 55 °F 70% SSE  at  4.0 mph 0.00 in / hr 492 ft 1:20 AM CDT Rapid Fire
Werner Ent. Laredo, Laredo, TX 63.7 °F 54 °F 71% NE  at  12.0 mph 0.00 in / hr 686 ft 1:12 AM CDT Normal
MesoWest CLAGNS , Encinal, TX 65 °F - - North  at  - 0.00 in / hr 628 ft 11:45 PM CDT MADIS

Show More Stations Show Fewer Stations

What do you think?

We're not finished. Please let us know what you like, what you don't like, and what you are still missing.